Time;durP1;ratioP1;P1;durP2;ratioP2;P2;SDS_P1;SDS_P2;PMS_P1;PMS_P2;Temp;Humidity;BMP_temperature;BMP_pressure;BME280_temperature;BME280_humidity;BME280_pressure;Samples;Min_cycle;Max_cycle;Signal;HPM_P1;HPM_P2
2023/01/03 00:01:34;;;;;;;1.27;1.17;;;;;;;;;;4970426;28;20027;-76
2023/01/03 00:04:02;;;;;;;2.67;1.73;;;;;;;;;;4986859;28;20393;-78
2023/01/03 00:06:40;;;;;;;1.10;1.00;;;;;;;;;;4983636;28;20023;-76
2023/01/03 00:09:11;;;;;;;1.52;0.98;;;;;;;;;;4972056;28;20027;-76
2023/01/03 00:14:25;;;;;;;1.25;0.73;;;;;;;;;;4967937;28;20057;-76
2023/01/03 00:16:53;;;;;;;1.27;0.90;;;;;;;;;;4971884;28;20031;-76
2023/01/03 00:19:19;;;;;;;1.27;0.90;;;;;;;;;;4972161;28;20033;-75
2023/01/03 00:21:45;;;;;;;1.00;0.85;;;;;;;;;;4976410;28;20398;-76
2023/01/03 00:24:11;;;;;;;1.20;1.10;;;;;;;;;;4972231;28;20030;-77
2023/01/03 00:26:42;;;;;;;1.30;1.20;;;;;;;;;;4971346;28;20574;-77
2023/01/03 00:29:09;;;;;;;1.08;0.90;;;;;;;;;;4971598;28;20556;-76
2023/01/03 00:31:37;;;;;;;1.92;0.93;;;;;;;;;;4972001;28;20030;-79
2023/01/03 00:34:03;;;;;;;1.38;0.95;;;;;;;;;;4970558;28;20425;-77
2023/01/03 00:36:29;;;;;;;1.10;1.00;;;;;;;;;;4969840;28;20069;-77
2023/01/03 00:38:57;;;;;;;0.70;0.65;;;;;;;;;;4968985;28;20030;-76
2023/01/03 00:41:23;;;;;;;1.35;1.00;;;;;;;;;;4986617;28;20023;-75
2023/01/03 00:43:50;;;;;;;1.48;1.00;;;;;;;;;;4971247;28;20030;-76
2023/01/03 00:46:17;;;;;;;0.80;0.80;;;;;;;;;;4969532;28;20034;-76
2023/01/03 00:48:46;;;;;;;1.48;1.23;;;;;;;;;;4971042;28;20034;-76
2023/01/03 00:51:15;;;;;;;1.08;0.98;;;;;;;;;;4980444;28;20535;-76
2023/01/03 00:53:43;;;;;;;0.85;0.73;;;;;;;;;;4969822;28;20041;-78
2023/01/03 00:56:12;;;;;;;1.63;1.00;;;;;;;;;;4970245;28;20035;-76
2023/01/03 00:58:38;;;;;;;2.03;0.90;;;;;;;;;;4970210;28;20162;-75
2023/01/03 01:01:09;;;;;;;1.33;0.88;;;;;;;;;;4986079;28;20050;-76
2023/01/03 01:03:36;;;;;;;1.27;0.95;;;;;;;;;;4980291;28;20051;-75
2023/01/03 01:06:19;;;;;;;1.60;0.88;;;;;;;;;;4970985;28;20038;-76
2023/01/03 01:08:50;;;;;;;0.85;0.80;;;;;;;;;;4970311;28;20039;-76
2023/01/03 01:11:16;;;;;;;1.15;0.90;;;;;;;;;;4970415;28;20390;-77
2023/01/03 01:13:43;;;;;;;1.33;0.90;;;;;;;;;;4971257;28;20089;-76
2023/01/03 01:16:12;;;;;;;1.20;1.10;;;;;;;;;;4970394;28;20027;-76
2023/01/03 01:18:41;;;;;;;0.80;0.80;;;;;;;;;;4971802;28;20031;-77
2023/01/03 01:21:11;;;;;;;0.80;0.80;;;;;;;;;;4969798;28;20054;-77
2023/01/03 01:23:38;;;;;;;0.90;0.90;;;;;;;;;;4982929;28;20046;-77
2023/01/03 01:26:08;;;;;;;1.48;0.80;;;;;;;;;;4972200;28;20034;-76
2023/01/03 01:28:33;;;;;;;1.15;0.70;;;;;;;;;;4973684;28;20022;-76
2023/01/03 01:31:00;;;;;;;1.35;0.85;;;;;;;;;;4974684;28;20525;-75
2023/01/03 01:33:25;;;;;;;0.88;0.80;;;;;;;;;;4974449;28;20019;-76
2023/01/03 01:35:53;;;;;;;1.67;1.00;;;;;;;;;;4968036;28;20078;-75
2023/01/03 01:38:19;;;;;;;0.98;0.80;;;;;;;;;;4973810;28;20026;-77
2023/01/03 01:40:49;;;;;;;0.80;0.75;;;;;;;;;;4973967;28;20129;-76
2023/01/03 01:46:24;;;;;;;1.00;0.73;;;;;;;;;;4977565;28;20082;-75
2023/01/03 01:48:53;;;;;;;1.50;0.90;;;;;;;;;;4976607;28;20508;-77
2023/01/03 01:51:21;;;;;;;1.08;0.73;;;;;;;;;;4975583;28;20081;-76
2023/01/03 01:53:51;;;;;;;1.52;0.93;;;;;;;;;;4975037;28;20462;-76
2023/01/03 01:56:27;;;;;;;1.23;0.80;;;;;;;;;;4976001;28;20073;-76
2023/01/03 01:58:56;;;;;;;1.23;1.10;;;;;;;;;;4974249;28;20030;-76
2023/01/03 02:01:25;;;;;;;1.00;0.90;;;;;;;;;;4973408;28;20040;-77
2023/01/03 02:04:08;;;;;;;1.90;1.02;;;;;;;;;;4973408;28;20110;-76
2023/01/03 02:06:34;;;;;;;1.42;0.90;;;;;;;;;;4986824;28;20046;-77
2023/01/03 02:08:59;;;;;;;1.60;1.00;;;;;;;;;;4974135;28;20437;-76
2023/01/03 02:11:36;;;;;;;1.77;0.70;;;;;;;;;;4972840;28;20038;-77
2023/01/03 02:14:08;;;;;;;1.38;1.27;;;;;;;;;;4970162;28;20041;-77
2023/01/03 02:16:53;;;;;;;0.95;0.82;;;;;;;;;;4973811;28;20018;-76
2023/01/03 02:19:47;;;;;;;1.10;0.90;;;;;;;;;;4974408;28;20039;-76
2023/01/03 02:22:36;;;;;;;0.60;0.60;;;;;;;;;;4973856;28;20085;-76
2023/01/03 02:25:34;;;;;;;4.40;1.00;;;;;;;;;;4972792;28;20489;-77
2023/01/03 02:28:24;;;;;;;0.98;0.70;;;;;;;;;;4972655;28;20070;-76
2023/01/03 02:30:49;;;;;;;1.55;0.93;;;;;;;;;;4974101;28;20157;-76
2023/01/03 02:33:41;;;;;;;1.10;0.90;;;;;;;;;;4971915;28;20451;-77
2023/01/03 02:36:26;;;;;;;0.73;0.60;;;;;;;;;;4969570;28;20023;-76
2023/01/03 02:39:03;;;;;;;0.98;0.88;;;;;;;;;;4986332;28;20113;-76
2023/01/03 02:41:40;;;;;;;0.80;0.80;;;;;;;;;;4973674;28;20209;-76
2023/01/03 02:44:26;;;;;;;1.92;0.80;;;;;;;;;;4975892;28;20026;-76
2023/01/03 02:47:03;;;;;;;0.55;0.55;;;;;;;;;;4968496;28;20066;-76
2023/01/03 02:49:43;;;;;;;0.60;0.60;;;;;;;;;;4973899;28;20027;-76
2023/01/03 02:52:13;;;;;;;;;;;;;;;;;;4973242;28;20026;-77
2023/01/03 02:54:45;;;;;;;0.70;0.70;;;;;;;;;;4975030;28;19914;-76
2023/01/03 02:57:25;;;;;;;0.80;0.80;;;;;;;;;;4968573;28;20027;-78
2023/01/03 03:00:07;;;;;;;1.45;0.93;;;;;;;;;;4986658;28;20554;-76
2023/01/03 03:02:35;;;;;;;1.80;0.73;;;;;;;;;;4973061;28;20465;-76
2023/01/03 03:05:05;;;;;;;0.80;0.80;;;;;;;;;;4972298;28;20125;-76
2023/01/03 03:07:38;;;;;;;1.45;1.00;;;;;;;;;;4971153;28;20027;-76
2023/01/03 03:13:14;;;;;;;1.20;0.70;;;;;;;;;;4973750;28;20041;-75
2023/01/03 03:15:57;;;;;;;1.15;0.80;;;;;;;;;;4972487;28;20058;-76
2023/01/03 03:18:49;;;;;;;1.80;1.00;;;;;;;;;;4988558;28;20027;-77
2023/01/03 03:28:33;;;;;;;7.68;2.85;;;;;;;;;;4973927;28;20508;-76
2023/01/03 03:29:52;;;;;;;13.68;5.38;;;;;;;;;;4972201;28;21533;-76
2023/01/03 03:32:25;;;;;;;7.10;3.17;;;;;;;;;;4973342;28;20464;-77
2023/01/03 03:34:52;;;;;;;0.93;0.70;;;;;;;;;;4972790;28;20026;-76
2023/01/03 03:37:21;;;;;;;1.33;0.60;;;;;;;;;;4987154;28;20027;-76
2023/01/03 03:46:29;;;;;;;0.98;0.50;;;;;;;;;;4972716;28;20117;-76
2023/01/03 03:51:55;;;;;;;1.20;0.63;;;;;;;;;;4948196;29;20065;-76
2023/01/03 03:54:23;;;;;;;1.27;0.50;;;;;;;;;;4958299;28;20493;-76
2023/01/03 03:57:03;;;;;;;3.40;1.70;;;;;;;;;;4982131;28;20030;-75
2023/01/03 03:59:32;;;;;;;13.77;4.93;;;;;;;;;;4975176;28;20158;-76
2023/01/03 04:02:02;;;;;;;5.85;2.70;;;;;;;;;;4969441;28;20033;-77
2023/01/03 04:04:34;;;;;;;2.95;1.30;;;;;;;;;;4972205;28;20454;-77
2023/01/03 04:07:01;;;;;;;1.38;0.70;;;;;;;;;;4970508;28;20026;-77
2023/01/03 04:09:27;;;;;;;3.70;0.85;;;;;;;;;;4971775;28;20030;-76
2023/01/03 04:11:52;;;;;;;0.68;0.60;;;;;;;;;;4975171;28;20026;-76
2023/01/03 04:14:17;;;;;;;1.52;0.70;;;;;;;;;;4971937;28;20061;-77
2023/01/03 04:16:43;;;;;;;1.52;0.80;;;;;;;;;;4970850;28;20520;-77
2023/01/03 04:19:11;;;;;;;1.00;0.57;;;;;;;;;;4972009;28;20387;-76
2023/01/03 04:21:36;;;;;;;0.80;0.70;;;;;;;;;;4970031;28;20073;-76
2023/01/03 04:24:03;;;;;;;3.42;0.70;;;;;;;;;;4970850;28;20457;-75
2023/01/03 04:26:29;;;;;;;1.45;0.90;;;;;;;;;;4969800;28;20023;-76
2023/01/03 04:28:54;;;;;;;1.75;1.20;;;;;;;;;;4980484;28;20041;-74
2023/01/03 04:31:19;;;;;;;2.97;1.30;;;;;;;;;;4970543;28;20042;-76
2023/01/03 04:33:47;;;;;;;0.95;0.63;;;;;;;;;;4970094;28;20118;-76
2023/01/03 04:36:17;;;;;;;1.25;0.80;;;;;;;;;;4972077;28;20077;-76
2023/01/03 04:38:45;;;;;;;2.38;0.93;;;;;;;;;;4971374;28;20037;-76
2023/01/03 04:41:10;;;;;;;3.80;1.10;;;;;;;;;;4971930;28;20038;-76
2023/01/03 04:46:39;;;;;;;1.17;0.82;;;;;;;;;;4967055;28;20035;-77
2023/01/03 04:49:07;;;;;;;1.27;0.52;;;;;;;;;;4968679;28;20096;-76
2023/01/03 04:51:33;;;;;;;0.75;0.70;;;;;;;;;;4969274;28;20097;-76
2023/01/03 04:54:01;;;;;;;1.08;0.70;;;;;;;;;;4970955;28;20034;-76
2023/01/03 04:56:29;;;;;;;1.08;0.80;;;;;;;;;;4971521;28;20022;-76
2023/01/03 04:58:55;;;;;;;1.95;0.75;;;;;;;;;;4983571;28;20077;-76
2023/01/03 05:01:21;;;;;;;2.22;1.13;;;;;;;;;;4971861;28;20073;-77
2023/01/03 05:03:47;;;;;;;3.97;2.13;;;;;;;;;;4970071;28;20043;-76
2023/01/03 05:06:15;;;;;;;7.78;2.85;;;;;;;;;;4971465;28;20026;-76
2023/01/03 05:08:42;;;;;;;1.52;0.82;;;;;;;;;;4969640;28;20102;-77
2023/01/03 05:11:08;;;;;;;1.77;0.60;;;;;;;;;;4970289;28;20023;-77
2023/01/03 05:13:33;;;;;;;0.98;0.50;;;;;;;;;;4969647;28;20474;-77
2023/01/03 05:16:04;;;;;;;1.75;0.63;;;;;;;;;;4971266;28;20493;-76
2023/01/03 05:18:30;;;;;;;1.67;0.88;;;;;;;;;;4971202;28;20034;-76
2023/01/03 05:26:24;;;;;;;4.32;1.10;;;;;;;;;;4974430;28;20030;-75
2023/01/03 05:28:52;;;;;;;1.65;0.93;;;;;;;;;;4972405;28;20023;-78
2023/01/03 05:31:18;;;;;;;1.40;0.90;;;;;;;;;;4972878;28;20113;-76
2023/01/03 05:33:44;;;;;;;1.67;0.80;;;;;;;;;;4972685;28;20454;-76
2023/01/03 05:36:09;;;;;;;1.80;0.70;;;;;;;;;;4971221;28;20138;-77
2023/01/03 05:38:36;;;;;;;0.80;0.80;;;;;;;;;;4972251;28;20559;-76
2023/01/03 05:41:01;;;;;;;2.47;1.88;;;;;;;;;;4974164;28;20030;-77
2023/01/03 05:43:29;;;;;;;1.25;0.80;;;;;;;;;;4975342;28;20488;-76
2023/01/03 05:45:54;;;;;;;2.40;1.10;;;;;;;;;;4975263;28;20282;-76
2023/01/03 05:48:22;;;;;;;1.95;0.93;;;;;;;;;;4975627;28;20050;-76
2023/01/03 05:50:51;;;;;;;1.73;1.05;;;;;;;;;;4974284;28;20031;-76
2023/01/03 05:53:18;;;;;;;4.15;2.30;;;;;;;;;;4976957;28;20459;-77
2023/01/03 05:55:44;;;;;;;3.65;2.30;;;;;;;;;;4975806;28;20390;-77
2023/01/03 05:58:12;;;;;;;4.55;2.75;;;;;;;;;;4975973;28;20014;-76
2023/01/03 06:00:38;;;;;;;4.15;2.03;;;;;;;;;;4975351;28;20030;-77
2023/01/03 06:03:04;;;;;;;1.98;1.50;;;;;;;;;;4969163;28;20589;-77
2023/01/03 06:05:29;;;;;;;1.52;1.30;;;;;;;;;;4974734;28;20037;-76
2023/01/03 06:07:54;;;;;;;2.72;1.55;;;;;;;;;;4975977;28;20032;-78
2023/01/03 06:10:22;;;;;;;5.85;1.17;;;;;;;;;;4978164;28;20050;-77
2023/01/03 06:12:47;;;;;;;1.00;0.90;;;;;;;;;;4975973;28;20549;-76
2023/01/03 06:15:15;;;;;;;1.00;0.82;;;;;;;;;;4975311;28;20150;-77
2023/01/03 06:18:01;;;;;;;1.98;1.02;;;;;;;;;;4975440;28;20023;-77
2023/01/03 06:20:27;;;;;;;2.15;1.10;;;;;;;;;;4962198;28;20030;-77
2023/01/03 06:22:53;;;;;;;1.80;1.27;;;;;;;;;;4974201;28;20022;-76
2023/01/03 06:25:21;;;;;;;2.90;1.50;;;;;;;;;;4975565;28;20041;-77
2023/01/03 06:27:49;;;;;;;1.63;1.27;;;;;;;;;;4977777;28;20027;-76
2023/01/03 06:30:15;;;;;;;1.60;1.00;;;;;;;;;;4987853;28;20014;-76
2023/01/03 06:32:40;;;;;;;1.23;0.90;;;;;;;;;;4971421;28;20029;-77
2023/01/03 06:35:06;;;;;;;1.50;0.90;;;;;;;;;;4987619;28;20026;-76
2023/01/03 06:37:34;;;;;;;1.63;1.27;;;;;;;;;;4973593;28;20561;-76
2023/01/03 06:40:02;;;;;;;4.18;3.53;;;;;;;;;;4976148;28;20282;-77
2023/01/03 06:42:41;;;;;;;4.10;3.13;;;;;;;;;;4973504;28;20061;-77
2023/01/03 06:53:32;;;;;;;3.75;1.90;;;;;;;;;;4974745;28;20046;-77
2023/01/03 06:56:00;;;;;;;2.30;1.50;;;;;;;;;;4973180;28;20054;-77
2023/01/03 06:58:25;;;;;;;2.10;1.45;;;;;;;;;;4989802;28;20027;-77
2023/01/03 07:00:52;;;;;;;3.28;1.60;;;;;;;;;;4975208;28;20022;-77
2023/01/03 07:03:19;;;;;;;3.28;1.30;;;;;;;;;;4975961;28;20029;-75
2023/01/03 07:05:47;;;;;;;1.25;1.00;;;;;;;;;;4974927;28;20534;-77
2023/01/03 07:08:15;;;;;;;1.90;1.15;;;;;;;;;;4970641;28;20023;-77
2023/01/03 07:10:40;;;;;;;2.33;1.23;;;;;;;;;;4975829;28;20019;-76
2023/01/03 07:15:52;;;;;;;2.95;1.30;;;;;;;;;;4975640;28;20033;-76
2023/01/03 07:18:17;;;;;;;2.08;1.58;;;;;;;;;;4968621;28;20026;-77
2023/01/03 07:20:43;;;;;;;2.25;1.52;;;;;;;;;;4971060;28;20031;-78
2023/01/03 07:23:11;;;;;;;2.47;1.17;;;;;;;;;;4970123;28;20082;-78
2023/01/03 07:25:40;;;;;;;3.28;1.60;;;;;;;;;;4973571;28;20026;-77
2023/01/03 07:28:07;;;;;;;2.50;1.20;;;;;;;;;;4974175;28;20509;-78
2023/01/03 07:30:39;;;;;;;3.05;1.50;;;;;;;;;;4989326;28;20773;-77
2023/01/03 07:33:05;;;;;;;3.90;1.20;;;;;;;;;;4970880;28;20061;-77
2023/01/03 07:35:33;;;;;;;4.95;1.60;;;;;;;;;;4970240;28;20047;-77
2023/01/03 07:37:58;;;;;;;1.60;1.20;;;;;;;;;;4975132;28;20027;-76
2023/01/03 07:40:27;;;;;;;2.35;1.30;;;;;;;;;;4970774;28;20139;-77
2023/01/03 07:45:43;;;;;;;9.80;6.35;;;;;;;;;;4972130;28;20034;-76
2023/01/03 07:48:10;;;;;;;59.20;29.60;;;;;;;;;;4974813;28;20022;-75
2023/01/03 07:50:36;;;;;;;56.55;28.02;;;;;;;;;;4975384;28;20029;-77
2023/01/03 07:53:03;;;;;;;29.20;15.77;;;;;;;;;;4989635;28;20037;-77
2023/01/03 07:55:28;;;;;;;9.88;5.22;;;;;;;;;;4975992;28;20019;-77
2023/01/03 07:57:56;;;;;;;4.95;3.80;;;;;;;;;;4974946;28;20023;-77
2023/01/03 08:00:24;;;;;;;8.52;5.35;;;;;;;;;;4973968;28;20030;-76
2023/01/03 08:02:56;;;;;;;5.60;4.45;;;;;;;;;;4966364;28;20034;-78
2023/01/03 08:05:22;;;;;;;4.28;2.00;;;;;;;;;;4969775;28;20057;-76
2023/01/03 08:07:49;;;;;;;2.53;2.15;;;;;;;;;;4968808;28;20050;-77
2023/01/03 08:13:18;;;;;;;6.53;2.20;;;;;;;;;;4967254;28;20393;-77
2023/01/03 08:15:47;;;;;;;5.93;2.50;;;;;;;;;;4971295;28;20469;-77
2023/01/03 08:18:16;;;;;;;4.35;2.10;;;;;;;;;;4973043;28;20027;-77
2023/01/03 08:20:41;;;;;;;7.65;2.72;;;;;;;;;;4972179;28;20081;-77
2023/01/03 08:23:07;;;;;;;4.72;2.10;;;;;;;;;;4971925;28;20026;-77
2023/01/03 08:25:35;;;;;;;2.90;1.80;;;;;;;;;;4973225;28;20490;-77
2023/01/03 08:28:05;;;;;;;5.13;1.90;;;;;;;;;;4986774;28;20394;-77
2023/01/03 08:30:40;;;;;;;4.10;2.13;;;;;;;;;;4970383;28;20042;-76
2023/01/03 08:33:09;;;;;;;3.05;2.47;;;;;;;;;;4965693;28;20050;-77
2023/01/03 08:35:37;;;;;;;5.15;2.47;;;;;;;;;;4974117;28;20022;-76
2023/01/03 08:38:04;;;;;;;9.43;3.70;;;;;;;;;;4964123;28;20035;-76
2023/01/03 08:40:34;;;;;;;9.32;4.32;;;;;;;;;;4964892;28;20026;-77
2023/01/03 08:43:05;;;;;;;9.95;3.97;;;;;;;;;;4973552;28;20478;-77
2023/01/03 08:45:31;;;;;;;4.97;3.05;;;;;;;;;;4973624;28;20034;-77
2023/01/03 08:48:00;;;;;;;4.85;2.58;;;;;;;;;;4989271;28;20031;-79
2023/01/03 08:50:26;;;;;;;4.30;2.22;;;;;;;;;;4988801;28;20113;-77
2023/01/03 08:52:54;;;;;;;5.43;2.58;;;;;;;;;;4974511;28;20445;-77
2023/01/03 08:55:19;;;;;;;6.25;2.92;;;;;;;;;;4993624;28;20102;-77
2023/01/03 08:57:45;;;;;;;7.22;3.00;;;;;;;;;;4974309;28;20388;-76
2023/01/03 09:00:11;;;;;;;4.88;2.60;;;;;;;;;;4976878;28;20030;-76
2023/01/03 09:02:36;;;;;;;3.88;2.50;;;;;;;;;;4988254;28;20011;-75
2023/01/03 09:05:01;;;;;;;3.75;2.40;;;;;;;;;;4980667;28;20042;-77
2023/01/03 09:07:27;;;;;;;2.60;1.95;;;;;;;;;;4978900;28;20110;-76
2023/01/03 09:09:52;;;;;;;2.42;2.17;;;;;;;;;;4977493;28;20126;-77
2023/01/03 09:12:18;;;;;;;2.92;1.80;;;;;;;;;;4978610;28;20027;-77
2023/01/03 09:14:43;;;;;;;5.28;2.40;;;;;;;;;;4978120;28;20034;-76
2023/01/03 09:17:09;;;;;;;3.40;2.05;;;;;;;;;;4975941;28;20022;-77
2023/01/03 09:19:34;;;;;;;3.80;1.88;;;;;;;;;;4976719;28;20441;-78
2023/01/03 09:21:59;;;;;;;4.22;2.20;;;;;;;;;;4976520;28;20015;-76
2023/01/03 09:24:25;;;;;;;5.57;2.25;;;;;;;;;;4977070;28;20438;-77
2023/01/03 09:26:50;;;;;;;4.93;2.30;;;;;;;;;;4977580;28;20050;-77
2023/01/03 09:29:18;;;;;;;4.43;2.55;;;;;;;;;;4976445;28;20038;-76
2023/01/03 09:31:43;;;;;;;5.47;2.08;;;;;;;;;;4975006;28;20382;-76
2023/01/03 09:34:09;;;;;;;5.03;2.67;;;;;;;;;;4977793;28;20026;-77
2023/01/03 09:36:37;;;;;;;4.35;3.20;;;;;;;;;;4976901;28;20095;-77
2023/01/03 09:39:03;;;;;;;5.15;3.25;;;;;;;;;;4967009;28;20027;-76
2023/01/03 09:41:28;;;;;;;8.48;4.50;;;;;;;;;;4989732;28;20022;-76
2023/01/03 09:44:03;;;;;;;9.45;4.63;;;;;;;;;;4979701;28;20023;-77
2023/01/03 09:46:35;;;;;;;11.43;6.25;;;;;;;;;;4978118;28;20027;-78
2023/01/03 09:49:05;;;;;;;9.95;6.50;;;;;;;;;;4975658;28;20026;-78
2023/01/03 10:03:43;;;;;;;8.57;5.25;;;;;;;;;;4975444;28;20142;-75
2023/01/03 10:06:08;;;;;;;9.15;5.82;;;;;;;;;;4975957;28;20029;-76
2023/01/03 10:08:48;;;;;;;17.55;8.15;;;;;;;;;;4976230;28;20567;-77
2023/01/03 10:11:32;;;;;;;12.05;6.55;;;;;;;;;;4978131;28;20043;-77
2023/01/03 10:14:09;;;;;;;13.20;5.13;;;;;;;;;;4971168;28;20062;-78
2023/01/03 10:17:02;;;;;;;9.45;5.05;;;;;;;;;;4975204;28;20282;-77
2023/01/03 10:19:52;;;;;;;9.23;4.68;;;;;;;;;;4969448;28;20499;-75
2023/01/03 10:22:26;;;;;;;7.65;5.05;;;;;;;;;;4975152;28;20398;-77
2023/01/03 10:25:11;;;;;;;10.15;5.45;;;;;;;;;;4976384;28;20026;-75
2023/01/03 10:27:45;;;;;;;7.57;3.90;;;;;;;;;;4972956;28;20030;-77
2023/01/03 10:30:36;;;;;;;5.85;3.60;;;;;;;;;;4972517;28;20019;-76
2023/01/03 10:33:22;;;;;;;6.70;3.85;;;;;;;;;;4966026;28;20078;-77
2023/01/03 10:35:50;;;;;;;6.35;4.00;;;;;;;;;;4973816;28;20031;-77
2023/01/03 10:38:21;;;;;;;6.67;4.20;;;;;;;;;;4974643;28;20014;-77
2023/01/03 10:40:52;;;;;;;9.32;4.47;;;;;;;;;;4960242;28;20035;-77
2023/01/03 10:43:39;;;;;;;8.07;4.65;;;;;;;;;;4971958;28;20029;-77
2023/01/03 10:46:26;;;;;;;7.32;4.68;;;;;;;;;;4972099;28;20061;-77
2023/01/03 10:48:54;;;;;;;13.25;7.00;;;;;;;;;;4974105;28;20086;-77
2023/01/03 10:51:37;;;;;;;10.55;5.93;;;;;;;;;;4974322;28;20023;-76
2023/01/03 10:54:41;;;;;;;9.85;5.63;;;;;;;;;;4972580;28;20037;-77
2023/01/03 10:57:06;;;;;;;9.73;5.32;;;;;;;;;;4966467;28;20027;-76
2023/01/03 10:59:36;;;;;;;9.77;5.65;;;;;;;;;;4973238;28;20105;-77
2023/01/03 11:02:07;;;;;;;13.73;7.25;;;;;;;;;;4974473;28;20054;-77
2023/01/03 11:04:33;;;;;;;12.20;7.18;;;;;;;;;;4974620;28;20031;-76
2023/01/03 11:07:08;;;;;;;19.05;9.38;;;;;;;;;;4974238;28;20031;-77
2023/01/03 11:09:40;;;;;;;14.57;7.97;;;;;;;;;;4974327;28;20030;-77
2023/01/03 11:12:15;;;;;;;16.48;8.43;;;;;;;;;;4974856;28;20029;-75
2023/01/03 11:14:55;;;;;;;14.73;6.93;;;;;;;;;;4989480;28;20082;-77
2023/01/03 11:17:20;;;;;;;;;;;;;;;;;;4970871;28;20042;-77
2023/01/03 11:19:47;;;;;;;9.40;6.15;;;;;;;;;;4970931;28;19914;-77
2023/01/03 11:22:34;;;;;;;10.07;5.60;;;;;;;;;;4970010;28;20125;-77
2023/01/03 11:25:04;;;;;;;9.27;5.10;;;;;;;;;;4971702;28;20394;-77
2023/01/03 11:27:51;;;;;;;6.95;4.10;;;;;;;;;;4971493;28;20099;-75
2023/01/03 11:30:25;;;;;;;8.75;5.00;;;;;;;;;;4974490;28;20106;-76
2023/01/03 11:33:11;;;;;;;7.15;3.67;;;;;;;;;;4971680;28;20042;-76
2023/01/03 11:36:04;;;;;;;10.50;3.65;;;;;;;;;;4987032;28;20014;-74
2023/01/03 11:38:46;;;;;;;8.32;3.05;;;;;;;;;;4972655;28;20130;-77
2023/01/03 11:41:17;;;;;;;7.88;4.03;;;;;;;;;;4965745;28;20031;-77
2023/01/03 11:44:24;;;;;;;6.20;3.38;;;;;;;;;;4975470;28;20035;-78
2023/01/03 11:47:45;;;;;;;6.47;3.10;;;;;;;;;;4956178;28;20054;-78
2023/01/03 11:50:16;;;;;;;4.82;3.03;;;;;;;;;;4933238;29;20031;-78
2023/01/03 11:53:00;;;;;;;6.82;3.60;;;;;;;;;;4973848;28;20039;-77
2023/01/03 11:55:31;;;;;;;5.47;3.38;;;;;;;;;;4972708;28;20026;-77
2023/01/03 11:57:57;;;;;;;6.68;2.65;;;;;;;;;;4973443;28;20504;-77
2023/01/03 12:01:01;;;;;;;5.03;3.40;;;;;;;;;;4973470;28;20023;-77
2023/01/03 12:03:47;;;;;;;5.60;3.33;;;;;;;;;;4957434;28;20072;-79
2023/01/03 12:06:40;;;;;;;7.53;3.20;;;;;;;;;;4973648;28;20062;-77
2023/01/03 12:09:36;;;;;;;4.43;2.90;;;;;;;;;;4964107;28;20118;-77
2023/01/03 12:12:02;;;;;;;5.20;3.03;;;;;;;;;;4975215;28;20025;-78
2023/01/03 12:14:40;;;;;;;5.63;2.85;;;;;;;;;;4973107;28;20027;-77
2023/01/03 12:17:14;;;;;;;4.83;2.40;;;;;;;;;;4971041;28;20046;-77
2023/01/03 12:20:00;;;;;;;3.78;2.97;;;;;;;;;;4970221;28;20027;-77
2023/01/03 12:22:35;;;;;;;3.00;2.20;;;;;;;;;;4969777;28;20081;-77
2023/01/03 12:25:28;;;;;;;3.65;2.70;;;;;;;;;;4985104;28;20032;-77
2023/01/03 12:28:21;;;;;;;3.60;2.42;;;;;;;;;;4970909;28;20041;-77
2023/01/03 12:30:53;;;;;;;6.00;2.72;;;;;;;;;;4960995;28;20035;-77
2023/01/03 12:33:39;;;;;;;3.78;2.20;;;;;;;;;;4972188;28;20095;-77
2023/01/03 12:36:40;;;;;;;5.28;2.80;;;;;;;;;;4972543;28;20021;-78
2023/01/03 12:39:29;;;;;;;6.72;2.50;;;;;;;;;;4973323;28;20025;-78
2023/01/03 12:42:03;;;;;;;4.72;2.60;;;;;;;;;;4964712;28;20490;-79
2023/01/03 12:45:13;;;;;;;4.28;2.40;;;;;;;;;;4981583;28;20026;-78
2023/01/03 12:47:52;;;;;;;4.40;2.88;;;;;;;;;;4973852;28;20394;-78
2023/01/03 12:50:50;;;;;;;5.43;3.08;;;;;;;;;;4968706;28;20026;-78
2023/01/03 12:53:36;;;;;;;5.10;2.70;;;;;;;;;;4940457;28;20122;-78
2023/01/03 12:56:23;;;;;;;6.28;3.13;;;;;;;;;;4972451;28;20146;-77
2023/01/03 12:59:19;;;;;;;4.25;2.45;;;;;;;;;;4972451;28;20683;-77
2023/01/03 13:01:52;;;;;;;3.85;2.78;;;;;;;;;;4981510;28;20125;-78
2023/01/03 13:04:40;;;;;;;4.15;2.10;;;;;;;;;;4987731;28;20027;-78
2023/01/03 13:07:30;;;;;;;5.93;2.67;;;;;;;;;;4968952;28;20077;-77
2023/01/03 13:10:03;;;;;;;4.13;2.10;;;;;;;;;;4971731;28;20029;-77
2023/01/03 13:12:31;;;;;;;2.97;2.08;;;;;;;;;;4965658;28;20118;-79
2023/01/03 13:15:03;;;;;;;3.05;1.88;;;;;;;;;;4962386;28;20030;-78
2023/01/03 13:17:30;;;;;;;6.07;2.40;;;;;;;;;;4968971;28;20375;-77
2023/01/03 13:20:14;;;;;;;3.20;1.90;;;;;;;;;;4976140;28;20034;-77
2023/01/03 13:22:48;;;;;;;3.53;1.77;;;;;;;;;;4970815;28;20082;-77
2023/01/03 13:25:30;;;;;;;3.20;1.90;;;;;;;;;;4968406;28;20105;-76
2023/01/03 13:27:57;;;;;;;2.13;1.70;;;;;;;;;;4965220;28;20060;-78
2023/01/03 13:30:29;;;;;;;4.18;1.90;;;;;;;;;;4971000;28;20406;-78
2023/01/03 13:33:06;;;;;;;4.32;2.00;;;;;;;;;;4983872;28;20022;-78
2023/01/03 13:35:35;;;;;;;2.47;1.50;;;;;;;;;;4983627;28;20109;-78
2023/01/03 13:38:34;;;;;;;3.33;1.60;;;;;;;;;;4973487;28;20031;-77
2023/01/03 13:41:28;;;;;;;2.45;1.60;;;;;;;;;;4960459;28;20019;-76
2023/01/03 13:43:54;;;;;;;2.13;1.63;;;;;;;;;;4966347;28;20042;-76
2023/01/03 13:46:30;;;;;;;3.53;1.60;;;;;;;;;;4976606;28;20546;-78
2023/01/03 13:49:04;;;;;;;2.72;2.10;;;;;;;;;;4973638;28;20505;-78
2023/01/03 13:51:38;;;;;;;2.90;1.50;;;;;;;;;;4990669;28;20027;-76
2023/01/03 13:54:10;;;;;;;3.28;2.10;;;;;;;;;;4971314;28;20026;-77
2023/01/03 13:56:43;;;;;;;3.10;1.60;;;;;;;;;;4970574;28;20015;-77
2023/01/03 13:59:18;;;;;;;2.42;1.48;;;;;;;;;;4972211;28;20482;-76
2023/01/03 14:02:05;;;;;;;3.42;2.03;;;;;;;;;;4972426;28;20117;-77
2023/01/03 14:05:05;;;;;;;2.95;1.33;;;;;;;;;;4974589;28;20459;-76
2023/01/03 14:07:52;;;;;;;3.08;1.65;;;;;;;;;;4971862;28;20035;-75
2023/01/03 14:10:34;;;;;;;4.03;1.90;;;;;;;;;;4977744;28;20031;-77
2023/01/03 14:13:09;;;;;;;2.08;1.58;;;;;;;;;;4967952;28;20023;-78
2023/01/03 14:15:35;;;;;;;2.67;1.80;;;;;;;;;;4972597;28;20438;-79
2023/01/03 14:18:27;;;;;;;2.42;1.50;;;;;;;;;;4972913;28;20057;-79
2023/01/03 14:20:56;;;;;;;2.83;1.60;;;;;;;;;;4965845;28;20047;-77
2023/01/03 14:23:24;;;;;;;2.45;1.83;;;;;;;;;;4975386;28;20023;-77
2023/01/03 14:25:53;;;;;;;3.70;1.65;;;;;;;;;;4975354;28;20027;-78
2023/01/03 14:28:24;;;;;;;3.42;2.08;;;;;;;;;;4971692;28;20037;-77
2023/01/03 14:31:04;;;;;;;7.72;3.85;;;;;;;;;;4974026;28;20034;-79
2023/01/03 14:33:35;;;;;;;9.50;5.88;;;;;;;;;;4990380;28;20226;-78
2023/01/03 14:36:20;;;;;;;7.65;4.03;;;;;;;;;;4975266;28;20027;-77
2023/01/03 14:38:53;;;;;;;11.20;4.68;;;;;;;;;;4968444;28;20022;-77
2023/01/03 14:41:29;;;;;;;8.73;4.25;;;;;;;;;;4970044;28;20023;-78
2023/01/03 14:44:10;;;;;;;9.13;3.78;;;;;;;;;;4970913;28;20026;-77
2023/01/03 14:46:36;;;;;;;4.03;2.80;;;;;;;;;;4970714;28;20425;-77
2023/01/03 14:49:05;;;;;;;4.45;1.70;;;;;;;;;;4974542;28;20026;-76
2023/01/03 14:51:36;;;;;;;5.80;2.08;;;;;;;;;;4989378;28;20026;-78
2023/01/03 14:54:03;;;;;;;3.85;2.22;;;;;;;;;;4973728;28;20041;-78
2023/01/03 14:56:29;;;;;;;6.10;2.35;;;;;;;;;;4977408;28;20076;-77
2023/01/03 14:58:56;;;;;;;4.97;2.08;;;;;;;;;;4968462;28;20027;-77
2023/01/03 15:01:25;;;;;;;3.50;1.80;;;;;;;;;;4968749;28;20030;-77
2023/01/03 15:03:52;;;;;;;3.25;2.08;;;;;;;;;;4974102;28;20015;-77
2023/01/03 15:06:27;;;;;;;5.32;1.70;;;;;;;;;;4974072;28;20035;-76
2023/01/03 15:08:58;;;;;;;4.38;2.25;;;;;;;;;;4980523;28;20513;-77
2023/01/03 15:11:34;;;;;;;3.50;2.03;;;;;;;;;;4975191;28;20026;-77
2023/01/03 15:14:05;;;;;;;5.10;2.30;;;;;;;;;;4974866;28;20023;-78
2023/01/03 15:16:39;;;;;;;5.30;2.90;;;;;;;;;;4973666;28;20026;-78
2023/01/03 15:19:24;;;;;;;5.47;3.30;;;;;;;;;;4972447;28;20509;-76
2023/01/03 15:22:03;;;;;;;6.60;3.60;;;;;;;;;;4971430;28;20023;-76
2023/01/03 15:24:29;;;;;;;8.13;3.55;;;;;;;;;;4969308;28;20390;-76
2023/01/03 15:26:54;;;;;;;5.47;2.97;;;;;;;;;;4971683;28;20027;-77
2023/01/03 15:29:24;;;;;;;6.03;2.40;;;;;;;;;;4972113;28;20131;-77
2023/01/03 15:31:50;;;;;;;6.57;2.03;;;;;;;;;;4972586;28;20030;-77
2023/01/03 15:34:23;;;;;;;3.55;2.40;;;;;;;;;;4973530;28;20026;-77
2023/01/03 15:37:01;;;;;;;9.02;3.00;;;;;;;;;;4973254;28;20022;-77
2023/01/03 15:39:51;;;;;;;9.93;4.72;;;;;;;;;;4965261;28;20027;-77
2023/01/03 15:45:09;;;;;;;13.70;5.75;;;;;;;;;;4973935;28;20280;-75
2023/01/03 15:47:35;;;;;;;9.27;3.80;;;;;;;;;;4972299;28;20039;-78
2023/01/03 15:50:02;;;;;;;7.00;3.20;;;;;;;;;;4972507;28;20387;-76
2023/01/03 15:52:29;;;;;;;10.20;3.45;;;;;;;;;;4975473;28;20041;-78
2023/01/03 15:54:55;;;;;;;5.70;2.80;;;;;;;;;;4972393;28;20079;-77
2023/01/03 15:57:23;;;;;;;5.68;3.25;;;;;;;;;;4973961;28;20026;-76
2023/01/03 15:59:55;;;;;;;7.30;3.60;;;;;;;;;;4974389;28;20118;-76
2023/01/03 16:02:24;;;;;;;6.72;3.22;;;;;;;;;;4973558;28;20029;-76
2023/01/03 16:04:51;;;;;;;3.50;2.13;;;;;;;;;;4972889;28;20470;-77
2023/01/03 16:07:16;;;;;;;6.32;2.55;;;;;;;;;;4970879;28;20106;-77
2023/01/03 16:09:41;;;;;;;9.88;2.38;;;;;;;;;;4974077;28;20085;-77
2023/01/03 16:12:29;;;;;;;5.93;2.65;;;;;;;;;;4972510;28;20030;-77
2023/01/03 16:14:54;;;;;;;11.80;3.05;;;;;;;;;;4972456;28;20426;-75
2023/01/03 16:17:27;;;;;;;7.57;2.97;;;;;;;;;;4972167;28;20026;-77
2023/01/03 16:19:53;;;;;;;11.07;5.10;;;;;;;;;;4968073;28;20098;-76